Wetterdaten: Mittwoch, 16.09.2020
Datum Zeit Außen Temp. Server Temp. +20m Feuchte Feuchte +20m Luftdruck Regen Wind Richtung Richtung Sonnenschein Helligkeit Solar Taupunkt
16.09.2020 00:00 18,1 °C 25,3 °C 18,8 °C 66 % 54 % 1018,4 hPa 0,00 l/m² 11,0 km/h (2 Bft) O-NO±22.5 70 ° 0 min 0 lux 0 W/m² 11,6 °C
16.09.2020 00:15 18,0 °C 25,3 °C 18,5 °C 66 % 55 % 1018,4 hPa 0,00 l/m² 9,7 km/h (2 Bft) O-NO±22.5 70 ° 0 min 0 lux 0 W/m² 11,6 °C
16.09.2020 00:30 17,7 °C 25,3 °C 18,2 °C 67 % 57 % 1018,4 hPa 0,00 l/m² 10,2 km/h (2 Bft) O-NO±22.5 75 ° 0 min 0 lux 0 W/m² 11,5 °C
16.09.2020 00:45 17,5 °C 25,3 °C 18,0 °C 68 % 58 % 1018,4 hPa 0,00 l/m² 11,0 km/h (2 Bft) O±22.5° 80 ° 0 min 0 lux 0 W/m² 11,5 °C
16.09.2020 01:00 17,3 °C 25,1 °C 17,8 °C 68 % 58 % 1018,4 hPa 0,00 l/m² 12,4 km/h (3 Bft) O±22.5° 85 ° 0 min 0 lux 0 W/m² 11,3 °C
16.09.2020 01:15 16,9 °C 25,0 °C 17,5 °C 68 % 60 % 1018,5 hPa 0,00 l/m² 9,8 km/h (2 Bft) O-NO±22.5 75 ° 0 min 0 lux 0 W/m² 11,0 °C
16.09.2020 01:30 16,7 °C 24,8 °C 17,2 °C 68 % 62 % 1018,5 hPa 0,00 l/m² 12,4 km/h (3 Bft) O±22.5° 85 ° 0 min 0 lux 0 W/m² 10,8 °C
16.09.2020 01:45 16,6 °C 24,7 °C 17,1 °C 68 % 63 % 1018,5 hPa 0,00 l/m² 13,4 km/h (3 Bft) O±22.5° 90 ° 0 min 0 lux 0 W/m² 10,7 °C
16.09.2020 02:00 16,4 °C 24,5 °C 16,8 °C 69 % 64 % 1018,5 hPa 0,00 l/m² 12,5 km/h (3 Bft) O±22.5° 90 ° 0 min 0 lux 0 W/m² 10,7 °C
16.09.2020 02:15 16,0 °C 24,5 °C 16,2 °C 69 % 66 % 1018,6 hPa 0,00 l/m² 9,9 km/h (2 Bft) O±22.5° 90 ° 0 min 0 lux 0 W/m² 10,3 °C
16.09.2020 02:30 15,4 °C 24,4 °C 15,7 °C 69 % 68 % 1018,6 hPa 0,00 l/m² 7,4 km/h (2 Bft) O±22.5° 90 ° 0 min 0 lux 0 W/m² 9,7 °C
16.09.2020 02:45 15,2 °C 24,4 °C 16,0 °C 69 % 70 % 1018,7 hPa 0,00 l/m² 7,6 km/h (2 Bft) O±22.5° 80 ° 0 min 0 lux 0 W/m² 9,6 °C
16.09.2020 02:59 15,3 °C 24,2 °C 15,9 °C 69 % 70 % 1018,6 hPa 0,00 l/m² 7,8 km/h (2 Bft) O-NO±22.5 75 ° 0 min 0 lux 0 W/m² 9,6 °C
16.09.2020 03:15 15,1 °C 24,2 °C 15,7 °C 69 % 71 % 1018,7 hPa 0,00 l/m² 7,2 km/h (2 Bft) O±22.5° 85 ° 0 min 0 lux 0 W/m² 9,5 °C
16.09.2020 03:30 14,8 °C 24,0 °C 15,6 °C 70 % 71 % 1018,7 hPa 0,00 l/m² 7,0 km/h (2 Bft) O 85 ° 0 min 0 lux 0 W/m² 9,4 °C
16.09.2020 03:45 14,7 °C 24,0 °C 15,6 °C 70 % 71 % 1018,7 hPa 0,00 l/m² 7,4 km/h (2 Bft) O±22.5° 80 ° 0 min 0 lux 0 W/m² 9,3 °C
16.09.2020 04:00 14,6 °C 23,9 °C 15,3 °C 70 % 72 % 1018,7 hPa 0,00 l/m² 7,0 km/h (2 Bft) O±22.5° 90 ° 0 min 0 lux 0 W/m² 9,2 °C
16.09.2020 04:15 14,5 °C 23,8 °C 14,8 °C 70 % 74 % 1018,7 hPa 0,00 l/m² 8,3 km/h (2 Bft) O±22.5° 90 ° 0 min 0 lux 0 W/m² 9,1 °C
16.09.2020 04:30 14,1 °C 23,6 °C 14,7 °C 71 % 76 % 1017,7 hPa 0,00 l/m² 7,4 km/h (2 Bft) O±22.5° 95 ° 0 min 0 lux 0 W/m² 8,9 °C
16.09.2020 04:45 14,0 °C 23,5 °C 14,7 °C 71 % 76 % 1017,8 hPa 0,00 l/m² 6,5 km/h (2 Bft) O±22.5° 85 ° 0 min 0 lux 0 W/m² 8,8 °C
16.09.2020 05:00 14,0 °C 23,5 °C 14,6 °C 71 % 76 % 1017,8 hPa 0,00 l/m² 5,8 km/h (2 Bft) O±22.5° 80 ° 0 min 0 lux 0 W/m² 8,8 °C
16.09.2020 05:15 13,7 °C 23,4 °C 14,1 °C 72 % 77 % 1017,8 hPa 0,00 l/m² 5,5 km/h (1 Bft) O 80 ° 0 min 0 lux 0 W/m² 8,7 °C
16.09.2020 05:30 13,6 °C 23,2 °C 13,9 °C 72 % 79 % 1017,8 hPa 0,00 l/m² 6,4 km/h (2 Bft) O±22.5° 95 ° 0 min 0 lux 0 W/m² 8,6 °C
16.09.2020 05:45 13,7 °C 23,1 °C 13,8 °C 73 % 80 % 1017,8 hPa 0,00 l/m² 4,8 km/h (1 Bft) O 100 ° 0 min 0 lux 0 W/m² 8,9 °C
16.09.2020 06:00 13,7 °C 22,9 °C 14,2 °C 74 % 80 % 1017,8 hPa 0,00 l/m² 6,8 km/h (2 Bft) O±22.5° 95 ° 0 min 0 lux 0 W/m² 9,2 °C
16.09.2020 06:15 13,6 °C 22,8 °C 13,9 °C 74 % 80 % 1017,8 hPa 0,00 l/m² 8,6 km/h (2 Bft) O±22.5° 95 ° 0 min 0 lux 0 W/m² 9,1 °C
16.09.2020 06:30 13,5 °C 22,8 °C 13,7 °C 74 % 81 % 1017,8 hPa 0,00 l/m² 3,9 km/h (1 Bft) O 95 ° 0 min 0 lux 0 W/m² 9,0 °C
16.09.2020 06:45 13,5 °C 22,7 °C 14,0 °C 74 % 81 % 1017,8 hPa 0,00 l/m² 4,8 km/h (1 Bft) O±22.5° 85 ° 0 min 155 lux 0 W/m² 9,0 °C
16.09.2020 07:00 13,5 °C 22,7 °C 13,8 °C 74 % 80 % 1017,8 hPa 0,00 l/m² 3,6 km/h (1 Bft) O 85 ° 0 min 640 lux 0 W/m² 9,0 °C
16.09.2020 07:15 13,5 °C 22,6 °C 13,7 °C 75 % 80 % 1017,8 hPa 0,00 l/m² 8,3 km/h (2 Bft) O-SO 105 ° 0 min 1,71 klux 11 W/m² 9,2 °C
16.09.2020 07:30 15,1 °C 22,6 °C 15,9 °C 75 % 78 % 1018,7 hPa 0,00 l/m² 5,1 km/h (1 Bft) O±22.5° 85 ° 15 min 6,79 klux 44 W/m² 10,7 °C
16.09.2020 07:45 16,2 °C 22,6 °C 17,1 °C 73 % 71 % 1018,6 hPa 0,00 l/m² 4,5 km/h (1 Bft) O 80 ° 0 min 8,66 klux 56 W/m² 11,4 °C
16.09.2020 08:00 17,3 °C 22,8 °C 18,8 °C 69 % 58 % 1018,4 hPa 0,00 l/m² 0,0 km/h (0 Bft) O-NO 75 ° 0 min 12,7 klux 83 W/m² 11,6 °C
16.09.2020 08:15 16,2 °C 23,1 °C 18,6 °C 69 % 52 % 1018,6 hPa 0,00 l/m² 0,0 km/h (0 Bft) O-NO 70 ° 15 min 17,9 klux 117 W/m² 10,5 °C
16.09.2020 08:30 16,1 °C 23,6 °C 17,4 °C 69 % 62 % 1018,6 hPa 0,00 l/m² 3,9 km/h (1 Bft) O-NO 70 ° 15 min 22,0 klux 143 W/m² 10,4 °C
16.09.2020 08:45 16,3 °C 24,0 °C 17,7 °C 69 % 63 % 1018,5 hPa 0,00 l/m² 0,0 km/h (0 Bft) O-NO 70 ° 0 min 20,7 klux 135 W/m² 10,6 °C
16.09.2020 09:00 16,5 °C 24,3 °C 18,0 °C 69 % 63 % 1018,5 hPa 0,00 l/m² 0,0 km/h (0 Bft) O-NO 70 ° 0 min 15,6 klux 102 W/m² 10,8 °C
16.09.2020 09:15 17,4 °C 24,5 °C 19,1 °C 69 % 61 % 1018,4 hPa 0,00 l/m² 0,0 km/h (0 Bft) O-NO 70 ° 0 min 26,2 klux 171 W/m² 11,7 °C
16.09.2020 09:30 18,2 °C 25,0 °C 19,9 °C 69 % 58 % 1018,4 hPa 0,00 l/m² 0,0 km/h (0 Bft) O-NO 70 ° 0 min 29,3 klux 191 W/m² 12,4 °C
16.09.2020 09:45 18,5 °C 25,4 °C 20,3 °C 69 % 56 % 1018,3 hPa 0,00 l/m² 0,0 km/h (0 Bft) O-NO 70 ° 0 min 27,5 klux 179 W/m² 12,7 °C
16.09.2020 10:00 19,0 °C 25,6 °C 20,9 °C 68 % 55 % 1018,3 hPa 0,00 l/m² 0,0 km/h (0 Bft) O-NO 70 ° 0 min 35,5 klux 231 W/m² 13,0 °C
16.09.2020 10:15 20,0 °C 26,0 °C 21,6 °C 68 % 53 % 1018,2 hPa 0,00 l/m² 0,0 km/h (0 Bft) O-NO 70 ° 15 min 51,4 klux 335 W/m² 13,9 °C
16.09.2020 10:30 20,9 °C 26,7 °C 23,2 °C 66 % 48 % 1018,1 hPa 0,00 l/m² 0,0 km/h (0 Bft) O-NO 70 ° 15 min 50,9 klux 332 W/m² 14,3 °C
16.09.2020 10:45 22,2 °C 27,2 °C 23,7 °C 64 % 45 % 1017,9 hPa 0,00 l/m² 0,0 km/h (0 Bft) O-NO 70 ° 15 min 58,4 klux 380 W/m² 15,1 °C
16.09.2020 11:00 24,0 °C 28,0 °C 26,9 °C 60 % 38 % 1017,8 hPa 0,00 l/m² 0,0 km/h (0 Bft) O-NO 70 ° 15 min 63,5 klux 414 W/m² 15,7 °C
16.09.2020 11:15 25,0 °C 28,6 °C 26,9 °C 58 % 37 % 1017,7 hPa 0,00 l/m² 0,1 km/h (0 Bft) SO 135 ° 15 min 54,2 klux 353 W/m² 16,1 °C
16.09.2020 11:30 25,2 °C 29,1 °C 27,8 °C 58 % 37 % 1017,7 hPa 0,00 l/m² 4,2 km/h (1 Bft) S±67.5° 190 ° 0 min 48,8 klux 318 W/m² 16,3 °C
16.09.2020 11:45 25,1 °C 28,8 °C 27,4 °C 58 % 38 % 1017,7 hPa 0,00 l/m² 4,4 km/h (1 Bft) SW±45° 220 ° 15 min 55,5 klux 362 W/m² 16,2 °C
16.09.2020 12:00 24,6 °C 28,2 °C 26,5 °C 59 % 39 % 1017,7 hPa 0,00 l/m² 7,2 km/h (2 Bft) S-SW±22.5 200 ° 0 min 33,6 klux 219 W/m² 16,0 °C
16.09.2020 12:15 24,5 °C 28,0 °C 26,6 °C 60 % 40 % 1017,7 hPa 0,00 l/m² 4,9 km/h (1 Bft) S±22.5° 180 ° 0 min 52,1 klux 339 W/m² 16,2 °C
16.09.2020 12:30 25,0 °C 27,9 °C 27,5 °C 58 % 37 % 1016,6 hPa 0,00 l/m² 5,0 km/h (1 Bft) S-SO±45° 160 ° 0 min 51,2 klux 334 W/m² 16,1 °C
16.09.2020 12:45 25,0 °C 27,8 °C 27,3 °C 58 % 38 % 1016,6 hPa 0,00 l/m² 4,7 km/h (1 Bft) SO±22.5° 135 ° 0 min 49,8 klux 324 W/m² 16,1 °C
16.09.2020 13:00 25,9 °C 27,8 °C 28,0 °C 56 % 36 % 1016,6 hPa 0,00 l/m² 5,0 km/h (1 Bft) SO±45° 135 ° 15 min 66,2 klux 431 W/m² 16,4 °C
16.09.2020 13:15 26,7 °C 27,8 °C 29,2 °C 54 % 33 % 1016,5 hPa 0,00 l/m² 4,8 km/h (1 Bft) SO±45° 135 ° 15 min 59,4 klux 387 W/m² 16,6 °C
16.09.2020 13:30 27,1 °C 28,0 °C 29,3 °C 53 % 32 % 1016,4 hPa 0,00 l/m² 7,8 km/h (2 Bft) S±22.5° 180 ° 15 min 55,9 klux 364 W/m² 16,7 °C
16.09.2020 13:45 26,6 °C 28,0 °C 28,6 °C 54 % 33 % 1016,5 hPa 0,00 l/m² 0,3 km/h (0 Bft) S-SO±22.5 155 ° 0 min 25,1 klux 164 W/m² 16,5 °C
16.09.2020 14:00 26,2 °C 28,0 °C 28,1 °C 55 % 35 % 1016,5 hPa 0,00 l/m² 3,6 km/h (1 Bft) SO 145 ° 0 min 28,0 klux 182 W/m² 16,4 °C
16.09.2020 14:15 27,1 °C 28,1 °C 29,1 °C 52 % 33 % 1016,4 hPa 0,00 l/m² 4,2 km/h (1 Bft) S±22.5° 175 ° 15 min 73,0 klux 476 W/m² 16,4 °C
16.09.2020 14:30 28,1 °C 28,3 °C 29,6 °C 48 % 29 % 1016,3 hPa 0,00 l/m² 1,6 km/h (1 Bft) S-SO±22.5 150 ° 15 min 71,9 klux 468 W/m² 16,0 °C
16.09.2020 14:45 27,9 °C 28,5 °C 29,7 °C 46 % 28 % 1016,4 hPa 0,00 l/m² 2,5 km/h (1 Bft) SW 225 ° 0 min 47,1 klux 307 W/m² 15,2 °C
16.09.2020 15:00 27,0 °C 28,5 °C 28,7 °C 47 % 30 % 1016,5 hPa 0,00 l/m² 6,4 km/h (2 Bft) NW±22.5° 310 ° 0 min 23,5 klux 153 W/m² 14,7 °C
16.09.2020 15:15 27,3 °C 28,7 °C 28,9 °C 47 % 28 % 1016,4 hPa 0,00 l/m² 4,2 km/h (1 Bft) W-NW±22.5 285 ° 0 min 46,5 klux 303 W/m² 15,0 °C
16.09.2020 15:30 27,8 °C 28,7 °C 28,3 °C 42 % 27 % 1016,4 hPa 0,00 l/m² 4,6 km/h (1 Bft) NW±22.5° 320 ° 15 min 50,0 klux 326 W/m² 13,7 °C
16.09.2020 15:45 27,7 °C 28,7 °C 28,3 °C 41 % 26 % 1016,4 hPa 0,00 l/m² 5,2 km/h (1 Bft) NW±22.5° 320 ° 0 min 27,2 klux 177 W/m² 13,2 °C
16.09.2020 16:00 28,1 °C 28,8 °C 29,4 °C 42 % 27 % 1016,3 hPa 0,00 l/m² 0,0 km/h (0 Bft) N-NW 335 ° 0 min 31,3 klux 204 W/m² 14,0 °C
16.09.2020 16:15 28,3 °C 28,8 °C 29,7 °C 42 % 26 % 1016,3 hPa 0,00 l/m² 0,4 km/h (0 Bft) N-NO±67.5 20 ° 0 min 38,2 klux 249 W/m² 14,1 °C
16.09.2020 16:30 28,6 °C 28,9 °C 29,6 °C 41 % 25 % 1016,3 hPa 0,00 l/m² 7,9 km/h (2 Bft) W-NW±45° 295 ° 15 min 52,4 klux 341 W/m² 14,0 °C
16.09.2020 16:45 28,2 °C 28,5 °C 28,3 °C 40 % 27 % 1016,3 hPa 0,00 l/m² 0,0 km/h (0 Bft) N-NW±22.5 330 ° 15 min 35,6 klux 232 W/m² 13,3 °C
16.09.2020 17:00 28,1 °C 28,1 °C 28,7 °C 39 % 24 % 1015,3 hPa 0,00 l/m² 0,9 km/h (0 Bft) NW±22.5° 320 ° 15 min 35,4 klux 231 W/m² 12,8 °C
16.09.2020 17:15 28,5 °C 28,4 °C 29,6 °C 40 % 25 % 1015,3 hPa 0,00 l/m² 0,4 km/h (0 Bft) NW±22.5° 320 ° 15 min 41,7 klux 272 W/m² 13,6 °C
16.09.2020 17:30 28,3 °C 28,8 °C 29,0 °C 40 % 26 % 1015,3 hPa 0,00 l/m² 8,0 km/h (2 Bft) NW±22.5° 310 ° 15 min 33,7 klux 220 W/m² 13,4 °C
16.09.2020 17:45 27,1 °C 29,1 °C 26,9 °C 50 % 36 % 1015,4 hPa 0,00 l/m² 3,0 km/h (1 Bft) S-SW±22.5 200 ° 15 min 26,6 klux 173 W/m² 15,8 °C
16.09.2020 18:00 26,3 °C 29,3 °C 26,5 °C 51 % 36 % 1015,5 hPa 0,00 l/m² 4,8 km/h (1 Bft) SO±22.5° 135 ° 15 min 23,0 klux 150 W/m² 15,3 °C
16.09.2020 18:15 25,9 °C 29,3 °C 26,3 °C 54 % 38 % 1016,6 hPa 0,00 l/m² 2,4 km/h (1 Bft) S-SO±45° 165 ° 15 min 18,4 klux 120 W/m² 15,9 °C
16.09.2020 18:30 25,3 °C 29,3 °C 25,7 °C 57 % 41 % 1016,6 hPa 0,00 l/m² 0,7 km/h (0 Bft) S±67.5° 170 ° 0 min 11,6 klux 76 W/m² 16,2 °C
16.09.2020 18:45 24,8 °C 29,1 °C 25,1 °C 60 % 45 % 1016,7 hPa 0,00 l/m² 4,4 km/h (1 Bft) S±45° 175 ° 0 min 5,22 klux 34 W/m² 16,5 °C
16.09.2020 19:00 23,8 °C 29,0 °C 24,2 °C 55 % 41 % 1016,8 hPa 0,00 l/m² 3,4 km/h (1 Bft) S-SO±45° 160 ° 0 min 4,17 klux 27 W/m² 14,2 °C
16.09.2020 19:15 23,1 °C 28,9 °C 23,6 °C 51 % 37 % 1016,8 hPa 0,00 l/m² 4,0 km/h (1 Bft) SO±22.5° 130 ° 15 min 2,71 klux 18 W/m² 12,4 °C
16.09.2020 19:30 22,5 °C 28,6 °C 22,9 °C 53 % 38 % 1016,9 hPa 0,00 l/m² 0,5 km/h (0 Bft) S±45° 175 ° 0 min 1,26 klux 0 W/m² 12,4 °C
16.09.2020 19:45 22,0 °C 28,3 °C 22,2 °C 57 % 42 % 1018,0 hPa 0,00 l/m² 0,2 km/h (0 Bft) S-SO±45° 160 ° 0 min 359 lux 0 W/m² 13,1 °C
16.09.2020 20:00 21,5 °C 28,0 °C 22,0 °C 60 % 45 % 1018,0 hPa 0,00 l/m² 2,7 km/h (1 Bft) S-SO±67.5 150 ° 0 min 44 lux 0 W/m² 13,4 °C
16.09.2020 20:15 21,3 °C 27,8 °C 21,7 °C 62 % 48 % 1018,0 hPa 0,00 l/m² 2,4 km/h (1 Bft) S-SO±22.5 165 ° 0 min 2 lux 0 W/m² 13,7 °C
16.09.2020 20:30 21,0 °C 27,6 °C 21,3 °C 63 % 50 % 1018,1 hPa 0,00 l/m² 0,3 km/h (0 Bft) S-SW±22.5 195 ° 0 min 0 lux 0 W/m² 13,7 °C
16.09.2020 20:45 20,6 °C 27,5 °C 20,9 °C 66 % 54 % 1019,1 hPa 0,00 l/m² 0,1 km/h (0 Bft) S±45° 185 ° 0 min 0 lux 0 W/m² 14,0 °C
16.09.2020 21:00 20,3 °C 27,3 °C 20,6 °C 66 % 55 % 1019,2 hPa 0,00 l/m² 0,6 km/h (0 Bft) S±67.5° 180 ° 0 min 0 lux 0 W/m² 13,7 °C
16.09.2020 21:15 20,0 °C 27,2 °C 20,3 °C 66 % 55 % 1019,2 hPa 0,00 l/m² 0,4 km/h (0 Bft) S±22.5° 190 ° 0 min 0 lux 0 W/m² 13,4 °C
16.09.2020 21:30 19,7 °C 27,1 °C 19,9 °C 66 % 55 % 1019,2 hPa 0,00 l/m² 4,3 km/h (1 Bft) S±45° 170 ° 0 min 0 lux 0 W/m² 13,2 °C
16.09.2020 21:45 19,5 °C 26,9 °C 19,8 °C 65 % 52 % 1019,2 hPa 0,00 l/m² 7,5 km/h (2 Bft) S±67.5° 180 ° 0 min 0 lux 0 W/m² 12,7 °C
16.09.2020 22:00 19,0 °C 26,7 °C 19,3 °C 64 % 53 % 1020,3 hPa 0,00 l/m² 4,9 km/h (1 Bft) S-SO±67.5 160 ° 0 min 0 lux 0 W/m² 12,0 °C
16.09.2020 22:15 18,6 °C 26,6 °C 18,9 °C 65 % 54 % 1020,4 hPa 0,00 l/m² 4,2 km/h (1 Bft) O-SO±67.5 120 ° 0 min 0 lux 0 W/m² 11,9 °C
16.09.2020 22:30 18,2 °C 26,4 °C 18,4 °C 66 % 55 % 1020,4 hPa 0,00 l/m² 0,6 km/h (0 Bft) S±67.5° 190 ° 0 min 0 lux 0 W/m² 11,7 °C
16.09.2020 22:45 17,9 °C 26,3 °C 18,0 °C 66 % 57 % 1020,4 hPa 0,00 l/m² 0,8 km/h (0 Bft) S-SW±67.5 205 ° 0 min 0 lux 0 W/m² 11,5 °C
16.09.2020 23:00 17,4 °C 26,2 °C 17,7 °C 68 % 60 % 1020,5 hPa 0,00 l/m² 4,6 km/h (1 Bft) S±67.5° 190 ° 0 min 0 lux 0 W/m² 11,4 °C
16.09.2020 23:15 16,9 °C 26,0 °C 17,1 °C 68 % 66 % 1021,6 hPa 0,00 l/m² 0,9 km/h (0 Bft) S±67.5° 180 ° 0 min 0 lux 0 W/m² 11,0 °C
16.09.2020 23:30 16,5 °C 25,9 °C 16,7 °C 68 % 68 % 1021,6 hPa 0,00 l/m² 3,4 km/h (1 Bft) S-SW±22.5 195 ° 0 min 0 lux 0 W/m² 10,6 °C
16.09.2020 23:45 16,3 °C 25,8 °C 16,3 °C 69 % 69 % 1021,6 hPa 0,00 l/m² 0,6 km/h (0 Bft) S±67.5° 190 ° 0 min 0 lux 0 W/m² 10,6 °C
_ Min-Zeit 06:30 07:15 06:30 17:00 17:00 17:15 - 08:00 - - - - - 05:30
Minimum _ 13,5 °C 22,6 °C 13,7 °C 39 % 24 % 1015,3 hPa - 0,0 km/h (0 Bft) - - - - - 8,6 °C
_ Max-Zeit 16:30 18:00 14:45 07:15 06:30 23:45 00:00 01:45 - - 07:30 14:15 14:15 13:30
Maximum _ 28,6 °C 29,3 °C 29,7 °C 75 % 81 % 1021,6 hPa 0,00 l/m² 13,4 km/h
O (3 Bft)
- - 15 min 73,0 klux 476 W/m² 16,7 °C
Durchschnitt _ 20,3 °C 26,2 °C 21,3 °C 62 % 52 % 1017,9 hPa #0,00 l/m² 4,4 km/h (1 Bft) O - #6:00 h 18,0 klux 230 W/m² 12,5 °C